sensor_id;sensor_type;location;lat;lon;timestamp;P1;durP1;ratioP1;P2;durP2;ratioP2
14890;SDS011;7537;48.014;11.590;2023-07-29T00:01:35;2.95;;;1.86;;
14890;SDS011;7537;48.014;11.590;2023-07-29T00:07:03;2.16;;;2.24;;
14890;SDS011;7537;48.014;11.590;2023-07-29T00:12:43;3.01;;;2.42;;
14890;SDS011;7537;48.014;11.590;2023-07-29T00:18:10;5.02;;;2.79;;
14890;SDS011;7537;48.014;11.590;2023-07-29T00:23:38;5.34;;;2.48;;
14890;SDS011;7537;48.014;11.590;2023-07-29T00:29:05;2.72;;;2.79;;
14890;SDS011;7537;48.014;11.590;2023-07-29T00:34:32;2.63;;;2.06;;
14890;SDS011;7537;48.014;11.590;2023-07-29T00:40:09;2.52;;;2.43;;
14890;SDS011;7537;48.014;11.590;2023-07-29T00:45:38;3.40;;;2.76;;
14890;SDS011;7537;48.014;11.590;2023-07-29T00:51:06;2.30;;;2.12;;
14890;SDS011;7537;48.014;11.590;2023-07-29T00:56:33;2.67;;;2.46;;
14890;SDS011;7537;48.014;11.590;2023-07-29T01:02:01;6.30;;;3.73;;
14890;SDS011;7537;48.014;11.590;2023-07-29T01:07:33;3.01;;;2.89;;
14890;SDS011;7537;48.014;11.590;2023-07-29T01:13:05;2.93;;;2.49;;
14890;SDS011;7537;48.014;11.590;2023-07-29T01:18:35;1.99;;;1.96;;
14890;SDS011;7537;48.014;11.590;2023-07-29T01:24:03;5.61;;;2.58;;
14890;SDS011;7537;48.014;11.590;2023-07-29T01:29:31;3.14;;;2.34;;
14890;SDS011;7537;48.014;11.590;2023-07-29T01:35:00;4.69;;;2.03;;
14890;SDS011;7537;48.014;11.590;2023-07-29T01:40:39;4.87;;;2.86;;
14890;SDS011;7537;48.014;11.590;2023-07-29T01:46:07;5.42;;;2.25;;
14890;SDS011;7537;48.014;11.590;2023-07-29T01:51:34;1.85;;;1.96;;
14890;SDS011;7537;48.014;11.590;2023-07-29T01:57:02;2.31;;;2.40;;
14890;SDS011;7537;48.014;11.590;2023-07-29T02:02:32;7.84;;;2.21;;
14890;SDS011;7537;48.014;11.590;2023-07-29T02:08:00;2.64;;;2.44;;
14890;SDS011;7537;48.014;11.590;2023-07-29T02:13:30;2.92;;;2.49;;
14890;SDS011;7537;48.014;11.590;2023-07-29T02:18:57;4.37;;;2.53;;
14890;SDS011;7537;48.014;11.590;2023-07-29T02:24:25;2.64;;;2.40;;
14890;SDS011;7537;48.014;11.590;2023-07-29T02:29:52;2.21;;;1.89;;
14890;SDS011;7537;48.014;11.590;2023-07-29T02:35:21;3.87;;;2.23;;
14890;SDS011;7537;48.014;11.590;2023-07-29T02:40:52;6.22;;;2.28;;
14890;SDS011;7537;48.014;11.590;2023-07-29T02:46:20;2.22;;;2.28;;
14890;SDS011;7537;48.014;11.590;2023-07-29T02:51:47;1.98;;;2.04;;
14890;SDS011;7537;48.014;11.590;2023-07-29T02:57:15;2.43;;;2.09;;
14890;SDS011;7537;48.014;11.590;2023-07-29T03:02:42;2.69;;;2.44;;
14890;SDS011;7537;48.014;11.590;2023-07-29T03:08:09;3.22;;;2.54;;
14890;SDS011;7537;48.014;11.590;2023-07-29T03:13:39;1.72;;;1.83;;
14890;SDS011;7537;48.014;11.590;2023-07-29T03:19:07;1.98;;;2.07;;
14890;SDS011;7537;48.014;11.590;2023-07-29T03:24:34;2.36;;;2.29;;
14890;SDS011;7537;48.014;11.590;2023-07-29T03:30:02;1.81;;;1.88;;
14890;SDS011;7537;48.014;11.590;2023-07-29T03:35:32;4.17;;;2.06;;
14890;SDS011;7537;48.014;11.590;2023-07-29T03:41:03;8.98;;;2.27;;
14890;SDS011;7537;48.014;11.590;2023-07-29T03:46:30;1.78;;;1.89;;
14890;SDS011;7537;48.014;11.590;2023-07-29T03:51:58;3.21;;;2.84;;
14890;SDS011;7537;48.014;11.590;2023-07-29T03:57:28;1.90;;;2.00;;
14890;SDS011;7537;48.014;11.590;2023-07-29T04:02:56;3.11;;;2.02;;
14890;SDS011;7537;48.014;11.590;2023-07-29T04:08:25;1.76;;;1.84;;
14890;SDS011;7537;48.014;11.590;2023-07-29T04:13:53;4.91;;;2.61;;
14890;SDS011;7537;48.014;11.590;2023-07-29T04:19:21;4.93;;;2.58;;
14890;SDS011;7537;48.014;11.590;2023-07-29T04:24:48;2.16;;;1.99;;
14890;SDS011;7537;48.014;11.590;2023-07-29T04:30:16;2.16;;;1.95;;
14890;SDS011;7537;48.014;11.590;2023-07-29T04:35:43;1.41;;;1.51;;
14890;SDS011;7537;48.014;11.590;2023-07-29T04:41:20;3.17;;;2.16;;
14890;SDS011;7537;48.014;11.590;2023-07-29T04:46:51;1.56;;;1.61;;
14890;SDS011;7537;48.014;11.590;2023-07-29T04:52:18;1.41;;;1.27;;
14890;SDS011;7537;48.014;11.590;2023-07-29T04:57:46;1.39;;;1.44;;
14890;SDS011;7537;48.014;11.590;2023-07-29T05:03:14;1.50;;;1.58;;
14890;SDS011;7537;48.014;11.590;2023-07-29T05:08:41;1.06;;;1.13;;
14890;SDS011;7537;48.014;11.590;2023-07-29T05:14:12;1.18;;;1.26;;
14890;SDS011;7537;48.014;11.590;2023-07-29T05:19:39;1.46;;;1.52;;
14890;SDS011;7537;48.014;11.590;2023-07-29T05:25:08;1.17;;;1.21;;
14890;SDS011;7537;48.014;11.590;2023-07-29T05:30:35;3.78;;;2.87;;
14890;SDS011;7537;48.014;11.590;2023-07-29T05:36:03;1.46;;;1.53;;
14890;SDS011;7537;48.014;11.590;2023-07-29T05:41:34;1.74;;;1.24;;
14890;SDS011;7537;48.014;11.590;2023-07-29T05:47:01;0.98;;;1.01;;
14890;SDS011;7537;48.014;11.590;2023-07-29T05:52:29;1.24;;;1.37;;
14890;SDS011;7537;48.014;11.590;2023-07-29T05:57:56;1.10;;;1.25;;
14890;SDS011;7537;48.014;11.590;2023-07-29T06:03:23;1.62;;;1.34;;
14890;SDS011;7537;48.014;11.590;2023-07-29T06:08:51;1.89;;;1.56;;
14890;SDS011;7537;48.014;11.590;2023-07-29T06:14:18;1.49;;;1.58;;
14890;SDS011;7537;48.014;11.590;2023-07-29T06:19:46;1.40;;;1.41;;
14890;SDS011;7537;48.014;11.590;2023-07-29T06:25:13;2.26;;;1.80;;
14890;SDS011;7537;48.014;11.590;2023-07-29T06:30:41;1.41;;;1.46;;
14890;SDS011;7537;48.014;11.590;2023-07-29T06:36:08;1.93;;;1.49;;
14890;SDS011;7537;48.014;11.590;2023-07-29T06:41:39;2.35;;;1.59;;
14890;SDS011;7537;48.014;11.590;2023-07-29T06:47:06;1.19;;;1.21;;
14890;SDS011;7537;48.014;11.590;2023-07-29T06:52:34;2.44;;;1.74;;
14890;SDS011;7537;48.014;11.590;2023-07-29T06:58:01;1.78;;;1.88;;
14890;SDS011;7537;48.014;11.590;2023-07-29T07:03:34;5.44;;;2.11;;
14890;SDS011;7537;48.014;11.590;2023-07-29T07:09:01;2.04;;;2.03;;
14890;SDS011;7537;48.014;11.590;2023-07-29T07:14:32;2.31;;;2.32;;
14890;SDS011;7537;48.014;11.590;2023-07-29T07:20:00;2.07;;;2.18;;
14890;SDS011;7537;48.014;11.590;2023-07-29T07:25:30;4.50;;;2.24;;
14890;SDS011;7537;48.014;11.590;2023-07-29T07:30:57;2.20;;;2.27;;
14890;SDS011;7537;48.014;11.590;2023-07-29T07:36:29;2.03;;;2.16;;
14890;SDS011;7537;48.014;11.590;2023-07-29T07:42:01;2.08;;;2.14;;
14890;SDS011;7537;48.014;11.590;2023-07-29T07:47:28;2.29;;;2.38;;
14890;SDS011;7537;48.014;11.590;2023-07-29T07:52:56;5.73;;;2.64;;
14890;SDS011;7537;48.014;11.590;2023-07-29T07:58:23;4.46;;;2.95;;
14890;SDS011;7537;48.014;11.590;2023-07-29T08:03:52;2.28;;;2.43;;
14890;SDS011;7537;48.014;11.590;2023-07-29T08:09:19;2.70;;;2.72;;
14890;SDS011;7537;48.014;11.590;2023-07-29T08:14:47;2.47;;;2.26;;
14890;SDS011;7537;48.014;11.590;2023-07-29T08:20:15;2.41;;;2.49;;
14890;SDS011;7537;48.014;11.590;2023-07-29T08:25:42;2.48;;;2.39;;
14890;SDS011;7537;48.014;11.590;2023-07-29T08:31:10;2.28;;;2.23;;
14890;SDS011;7537;48.014;11.590;2023-07-29T08:36:38;2.53;;;2.64;;
14890;SDS011;7537;48.014;11.590;2023-07-29T08:42:14;2.40;;;2.43;;
14890;SDS011;7537;48.014;11.590;2023-07-29T08:47:45;4.28;;;3.46;;
14890;SDS011;7537;48.014;11.590;2023-07-29T08:53:14;1.48;;;1.62;;
14890;SDS011;7537;48.014;11.590;2023-07-29T08:58:42;3.50;;;2.57;;
14890;SDS011;7537;48.014;11.590;2023-07-29T09:04:10;1.96;;;2.08;;
14890;SDS011;7537;48.014;11.590;2023-07-29T09:09:37;2.17;;;2.19;;
14890;SDS011;7537;48.014;11.590;2023-07-29T09:15:08;2.78;;;2.91;;
14890;SDS011;7537;48.014;11.590;2023-07-29T09:20:35;1.97;;;2.06;;
14890;SDS011;7537;48.014;11.590;2023-07-29T09:26:03;1.92;;;2.04;;
14890;SDS011;7537;48.014;11.590;2023-07-29T09:31:31;2.89;;;1.81;;
14890;SDS011;7537;48.014;11.590;2023-07-29T09:36:58;2.25;;;2.31;;
14890;SDS011;7537;48.014;11.590;2023-07-29T09:42:29;2.12;;;2.18;;
14890;SDS011;7537;48.014;11.590;2023-07-29T09:47:57;2.41;;;2.27;;
14890;SDS011;7537;48.014;11.590;2023-07-29T09:53:25;3.04;;;2.52;;
14890;SDS011;7537;48.014;11.590;2023-07-29T09:58:56;2.56;;;2.41;;
14890;SDS011;7537;48.014;11.590;2023-07-29T10:04:24;2.69;;;2.82;;
14890;SDS011;7537;48.014;11.590;2023-07-29T10:09:58;3.14;;;2.86;;
14890;SDS011;7537;48.014;11.590;2023-07-29T10:15:26;2.13;;;2.26;;
14890;SDS011;7537;48.014;11.590;2023-07-29T10:20:54;2.40;;;2.47;;
14890;SDS011;7537;48.014;11.590;2023-07-29T10:26:29;2.95;;;3.13;;
14890;SDS011;7537;48.014;11.590;2023-07-29T10:31:59;1.83;;;1.97;;
14890;SDS011;7537;48.014;11.590;2023-07-29T10:37:29;2.37;;;2.42;;
14890;SDS011;7537;48.014;11.590;2023-07-29T10:43:00;2.31;;;2.42;;
14890;SDS011;7537;48.014;11.590;2023-07-29T10:48:40;2.66;;;2.74;;
14890;SDS011;7537;48.014;11.590;2023-07-29T10:54:10;2.69;;;2.76;;
14890;SDS011;7537;48.014;11.590;2023-07-29T10:59:38;2.51;;;2.52;;
14890;SDS011;7537;48.014;11.590;2023-07-29T11:05:06;2.91;;;2.98;;
14890;SDS011;7537;48.014;11.590;2023-07-29T11:10:43;3.98;;;2.62;;
14890;SDS011;7537;48.014;11.590;2023-07-29T11:16:10;2.36;;;2.41;;
14890;SDS011;7537;48.014;11.590;2023-07-29T11:21:42;3.44;;;2.79;;
14890;SDS011;7537;48.014;11.590;2023-07-29T11:27:11;3.84;;;2.79;;
14890;SDS011;7537;48.014;11.590;2023-07-29T11:32:40;8.53;;;3.21;;
14890;SDS011;7537;48.014;11.590;2023-07-29T11:38:07;3.11;;;3.22;;
14890;SDS011;7537;48.014;11.590;2023-07-29T11:43:38;4.21;;;2.85;;
14890;SDS011;7537;48.014;11.590;2023-07-29T11:49:06;2.94;;;2.74;;
14890;SDS011;7537;48.014;11.590;2023-07-29T11:54:35;2.21;;;2.33;;
14890;SDS011;7537;48.014;11.590;2023-07-29T12:00:03;2.54;;;2.55;;
14890;SDS011;7537;48.014;11.590;2023-07-29T12:05:31;1.82;;;1.81;;
14890;SDS011;7537;48.014;11.590;2023-07-29T12:10:59;1.47;;;1.54;;
14890;SDS011;7537;48.014;11.590;2023-07-29T12:16:26;2.22;;;2.09;;
14890;SDS011;7537;48.014;11.590;2023-07-29T12:21:54;2.41;;;1.92;;
14890;SDS011;7537;48.014;11.590;2023-07-29T12:27:21;1.61;;;1.66;;
14890;SDS011;7537;48.014;11.590;2023-07-29T12:32:49;2.12;;;2.26;;
14890;SDS011;7537;48.014;11.590;2023-07-29T12:38:21;2.26;;;2.29;;
14890;SDS011;7537;48.014;11.590;2023-07-29T12:43:52;2.28;;;2.12;;
14890;SDS011;7537;48.014;11.590;2023-07-29T12:49:20;2.13;;;2.22;;
14890;SDS011;7537;48.014;11.590;2023-07-29T12:54:48;1.83;;;1.93;;
14890;SDS011;7537;48.014;11.590;2023-07-29T13:00:16;2.25;;;2.29;;
14890;SDS011;7537;48.014;11.590;2023-07-29T13:05:43;6.59;;;2.41;;
14890;SDS011;7537;48.014;11.590;2023-07-29T13:11:14;3.26;;;2.91;;
14890;SDS011;7537;48.014;11.590;2023-07-29T13:16:42;2.41;;;2.06;;
14890;SDS011;7537;48.014;11.590;2023-07-29T13:22:09;2.84;;;2.10;;
14890;SDS011;7537;48.014;11.590;2023-07-29T13:27:37;2.18;;;2.11;;
14890;SDS011;7537;48.014;11.590;2023-07-29T13:33:05;2.38;;;2.14;;
14890;SDS011;7537;48.014;11.590;2023-07-29T13:38:33;1.74;;;1.85;;
14890;SDS011;7537;48.014;11.590;2023-07-29T13:44:09;1.43;;;1.44;;
14890;SDS011;7537;48.014;11.590;2023-07-29T13:49:36;2.61;;;1.56;;
14890;SDS011;7537;48.014;11.590;2023-07-29T13:55:05;2.61;;;1.34;;
14890;SDS011;7537;48.014;11.590;2023-07-29T14:00:32;1.64;;;1.69;;
14890;SDS011;7537;48.014;11.590;2023-07-29T14:06:00;3.28;;;1.97;;
14890;SDS011;7537;48.014;11.590;2023-07-29T14:11:32;3.18;;;2.38;;
14890;SDS011;7537;48.014;11.590;2023-07-29T14:17:05;3.96;;;2.06;;
14890;SDS011;7537;48.014;11.590;2023-07-29T14:22:33;2.24;;;2.29;;
14890;SDS011;7537;48.014;11.590;2023-07-29T14:28:00;2.89;;;1.64;;
14890;SDS011;7537;48.014;11.590;2023-07-29T14:33:27;2.08;;;1.89;;
14890;SDS011;7537;48.014;11.590;2023-07-29T14:38:55;1.75;;;1.81;;
14890;SDS011;7537;48.014;11.590;2023-07-29T14:44:26;1.54;;;1.39;;
14890;SDS011;7537;48.014;11.590;2023-07-29T14:49:53;2.23;;;1.84;;
14890;SDS011;7537;48.014;11.590;2023-07-29T14:55:21;1.86;;;1.89;;
14890;SDS011;7537;48.014;11.590;2023-07-29T15:00:52;2.48;;;1.93;;
14890;SDS011;7537;48.014;11.590;2023-07-29T15:06:24;2.37;;;2.42;;
14890;SDS011;7537;48.014;11.590;2023-07-29T15:11:52;1.79;;;1.89;;
14890;SDS011;7537;48.014;11.590;2023-07-29T15:17:19;2.77;;;2.23;;
14890;SDS011;7537;48.014;11.590;2023-07-29T15:22:47;2.40;;;2.48;;
14890;SDS011;7537;48.014;11.590;2023-07-29T15:28:14;2.03;;;2.09;;
14890;SDS011;7537;48.014;11.590;2023-07-29T15:33:43;2.45;;;2.55;;
14890;SDS011;7537;48.014;11.590;2023-07-29T15:39:10;3.17;;;2.28;;
14890;SDS011;7537;48.014;11.590;2023-07-29T15:44:43;1.84;;;1.92;;
14890;SDS011;7537;48.014;11.590;2023-07-29T15:50:10;1.79;;;1.89;;
14890;SDS011;7537;48.014;11.590;2023-07-29T15:55:38;2.21;;;2.39;;
14890;SDS011;7537;48.014;11.590;2023-07-29T16:01:05;1.89;;;1.94;;
14890;SDS011;7537;48.014;11.590;2023-07-29T16:06:36;1.93;;;2.07;;
14890;SDS011;7537;48.014;11.590;2023-07-29T16:12:04;2.03;;;2.13;;
14890;SDS011;7537;48.014;11.590;2023-07-29T16:19:11;5.30;;;1.64;;
14890;SDS011;7537;48.014;11.590;2023-07-29T16:24:38;2.01;;;1.96;;
14890;SDS011;7537;48.014;11.590;2023-07-29T16:30:06;2.12;;;2.19;;
14890;SDS011;7537;48.014;11.590;2023-07-29T16:35:44;2.36;;;2.06;;
14890;SDS011;7537;48.014;11.590;2023-07-29T16:41:12;2.27;;;2.32;;
14890;SDS011;7537;48.014;11.590;2023-07-29T16:46:39;2.75;;;2.09;;
14890;SDS011;7537;48.014;11.590;2023-07-29T16:52:10;1.44;;;1.57;;
14890;SDS011;7537;48.014;11.590;2023-07-29T16:57:38;1.39;;;1.51;;
14890;SDS011;7537;48.014;11.590;2023-07-29T17:03:06;2.93;;;2.06;;
14890;SDS011;7537;48.014;11.590;2023-07-29T17:08:33;3.76;;;1.72;;
14890;SDS011;7537;48.014;11.590;2023-07-29T17:14:00;1.01;;;1.13;;
14890;SDS011;7537;48.014;11.590;2023-07-29T17:19:31;2.62;;;1.70;;
14890;SDS011;7537;48.014;11.590;2023-07-29T17:24:59;1.41;;;1.46;;
14890;SDS011;7537;48.014;11.590;2023-07-29T17:30:27;3.04;;;1.19;;
14890;SDS011;7537;48.014;11.590;2023-07-29T17:35:55;1.17;;;1.28;;
14890;SDS011;7537;48.014;11.590;2023-07-29T17:41:22;1.14;;;1.17;;
14890;SDS011;7537;48.014;11.590;2023-07-29T17:46:50;0.64;;;0.73;;
14890;SDS011;7537;48.014;11.590;2023-07-29T17:52:18;0.75;;;0.83;;
14890;SDS011;7537;48.014;11.590;2023-07-29T17:57:45;3.24;;;1.29;;
14890;SDS011;7537;48.014;11.590;2023-07-29T18:03:13;1.37;;;0.60;;
14890;SDS011;7537;48.014;11.590;2023-07-29T18:08:40;0.83;;;0.83;;
14890;SDS011;7537;48.014;11.590;2023-07-29T18:14:08;0.94;;;1.03;;
14890;SDS011;7537;48.014;11.590;2023-07-29T18:19:42;0.90;;;0.91;;
14890;SDS011;7537;48.014;11.590;2023-07-29T18:25:10;1.83;;;1.15;;
14890;SDS011;7537;48.014;11.590;2023-07-29T18:30:42;0.99;;;1.08;;
14890;SDS011;7537;48.014;11.590;2023-07-29T18:36:24;0.88;;;0.98;;
14890;SDS011;7537;48.014;11.590;2023-07-29T18:41:52;1.15;;;1.23;;
14890;SDS011;7537;48.014;11.590;2023-07-29T18:47:27;0.86;;;0.96;;
14890;SDS011;7537;48.014;11.590;2023-07-29T18:52:55;0.89;;;0.91;;
14890;SDS011;7537;48.014;11.590;2023-07-29T18:58:27;6.54;;;0.98;;
14890;SDS011;7537;48.014;11.590;2023-07-29T19:03:55;0.77;;;0.85;;
14890;SDS011;7537;48.014;11.590;2023-07-29T19:09:22;8.06;;;1.40;;
14890;SDS011;7537;48.014;11.590;2023-07-29T19:14:50;1.19;;;1.24;;
14890;SDS011;7537;48.014;11.590;2023-07-29T19:20:21;1.37;;;1.38;;
14890;SDS011;7537;48.014;11.590;2023-07-29T19:25:49;1.42;;;1.49;;
14890;SDS011;7537;48.014;11.590;2023-07-29T19:31:17;1.39;;;1.43;;
14890;SDS011;7537;48.014;11.590;2023-07-29T19:36:46;1.17;;;1.28;;
14890;SDS011;7537;48.014;11.590;2023-07-29T19:42:14;1.61;;;1.71;;
14890;SDS011;7537;48.014;11.590;2023-07-29T19:47:42;1.69;;;1.44;;
14890;SDS011;7537;48.014;11.590;2023-07-29T19:53:15;1.37;;;1.40;;
14890;SDS011;7537;48.014;11.590;2023-07-29T19:58:43;1.51;;;1.61;;
14890;SDS011;7537;48.014;11.590;2023-07-29T20:04:10;2.44;;;1.69;;
14890;SDS011;7537;48.014;11.590;2023-07-29T20:09:41;2.82;;;1.91;;
14890;SDS011;7537;48.014;11.590;2023-07-29T20:15:09;6.91;;;1.69;;
14890;SDS011;7537;48.014;11.590;2023-07-29T20:20:40;1.31;;;1.33;;
14890;SDS011;7537;48.014;11.590;2023-07-29T20:26:08;1.30;;;1.34;;
14890;SDS011;7537;48.014;11.590;2023-07-29T20:31:38;1.79;;;1.74;;
14890;SDS011;7537;48.014;11.590;2023-07-29T20:37:06;1.39;;;1.42;;
14890;SDS011;7537;48.014;11.590;2023-07-29T20:42:33;1.56;;;1.63;;
14890;SDS011;7537;48.014;11.590;2023-07-29T20:48:00;3.96;;;1.70;;
14890;SDS011;7537;48.014;11.590;2023-07-29T20:53:28;4.34;;;2.06;;
14890;SDS011;7537;48.014;11.590;2023-07-29T20:58:55;1.76;;;1.71;;
14890;SDS011;7537;48.014;11.590;2023-07-29T21:04:23;1.80;;;1.83;;
14890;SDS011;7537;48.014;11.590;2023-07-29T21:09:50;1.76;;;1.57;;
14890;SDS011;7537;48.014;11.590;2023-07-29T21:15:18;1.36;;;1.19;;
14890;SDS011;7537;48.014;11.590;2023-07-29T21:20:49;1.02;;;1.09;;
14890;SDS011;7537;48.014;11.590;2023-07-29T21:26:16;1.53;;;1.59;;
14890;SDS011;7537;48.014;11.590;2023-07-29T21:31:43;1.38;;;1.45;;
14890;SDS011;7537;48.014;11.590;2023-07-29T21:37:12;1.39;;;1.39;;
14890;SDS011;7537;48.014;11.590;2023-07-29T21:42:40;2.32;;;1.34;;
14890;SDS011;7537;48.014;11.590;2023-07-29T21:48:07;1.46;;;1.54;;
14890;SDS011;7537;48.014;11.590;2023-07-29T21:53:34;1.35;;;1.29;;
14890;SDS011;7537;48.014;11.590;2023-07-29T21:59:10;1.43;;;1.31;;
14890;SDS011;7537;48.014;11.590;2023-07-29T22:04:38;1.51;;;1.56;;
14890;SDS011;7537;48.014;11.590;2023-07-29T22:10:06;2.53;;;1.60;;
14890;SDS011;7537;48.014;11.590;2023-07-29T22:15:34;2.04;;;2.11;;
14890;SDS011;7537;48.014;11.590;2023-07-29T22:21:10;1.08;;;1.23;;
14890;SDS011;7537;48.014;11.590;2023-07-29T22:26:39;1.49;;;1.55;;
14890;SDS011;7537;48.014;11.590;2023-07-29T22:32:07;1.50;;;1.54;;
14890;SDS011;7537;48.014;11.590;2023-07-29T22:37:34;1.53;;;1.00;;
14890;SDS011;7537;48.014;11.590;2023-07-29T22:43:01;1.33;;;0.99;;
14890;SDS011;7537;48.014;11.590;2023-07-29T22:48:35;2.06;;;1.59;;
14890;SDS011;7537;48.014;11.590;2023-07-29T22:54:07;1.24;;;1.26;;
14890;SDS011;7537;48.014;11.590;2023-07-29T22:59:35;1.34;;;0.93;;
14890;SDS011;7537;48.014;11.590;2023-07-29T23:05:02;2.86;;;1.02;;
14890;SDS011;7537;48.014;11.590;2023-07-29T23:10:30;0.91;;;0.98;;
14890;SDS011;7537;48.014;11.590;2023-07-29T23:15:59;1.02;;;1.02;;
14890;SDS011;7537;48.014;11.590;2023-07-29T23:21:35;1.29;;;1.42;;
14890;SDS011;7537;48.014;11.590;2023-07-29T23:27:03;1.18;;;1.17;;
14890;SDS011;7537;48.014;11.590;2023-07-29T23:32:31;2.95;;;1.02;;
14890;SDS011;7537;48.014;11.590;2023-07-29T23:37:58;1.52;;;1.52;;
14890;SDS011;7537;48.014;11.590;2023-07-29T23:43:29;1.12;;;1.25;;
14890;SDS011;7537;48.014;11.590;2023-07-29T23:48:57;3.92;;;1.11;;
14890;SDS011;7537;48.014;11.590;2023-07-29T23:54:24;2.11;;;1.08;;
14890;SDS011;7537;48.014;11.590;2023-07-29T23:59:51;0.88;;;0.96;;
